sensor_id;sensor_type;location;lat;lon;timestamp;pressure;altitude;pressure_sealevel;temperature;humidity
61573;BME280;47465;43.094;12.434;2022-10-16T00:02:01;99190.00;;;15.19;100.00
61573;BME280;47465;43.094;12.434;2022-10-16T00:04:27;99186.50;;;15.17;100.00
61573;BME280;47465;43.094;12.434;2022-10-16T00:06:53;99182.16;;;15.15;100.00
61573;BME280;47465;43.094;12.434;2022-10-16T00:09:18;99185.78;;;15.14;100.00
61573;BME280;47465;43.094;12.434;2022-10-16T00:11:44;99174.47;;;15.06;100.00
61573;BME280;47465;43.094;12.434;2022-10-16T00:14:12;99179.69;;;15.09;100.00
61573;BME280;47465;43.094;12.434;2022-10-16T00:16:40;99199.97;;;15.16;100.00
61573;BME280;47465;43.094;12.434;2022-10-16T00:19:06;99185.00;;;15.10;100.00
61573;BME280;47465;43.094;12.434;2022-10-16T00:21:32;99193.72;;;15.15;100.00
61573;BME280;47465;43.094;12.434;2022-10-16T00:24:01;99207.94;;;15.17;100.00
61573;BME280;47465;43.094;12.434;2022-10-16T00:26:27;99211.44;;;15.19;100.00
61573;BME280;47465;43.094;12.434;2022-10-16T00:28:53;99213.38;;;15.16;100.00
61573;BME280;47465;43.094;12.434;2022-10-16T00:31:21;99208.06;;;15.14;100.00
61573;BME280;47465;43.094;12.434;2022-10-16T00:33:49;99208.13;;;15.13;100.00
61573;BME280;47465;43.094;12.434;2022-10-16T00:36:18;99222.97;;;15.22;100.00
61573;BME280;47465;43.094;12.434;2022-10-16T00:38:44;99198.59;;;15.06;100.00
61573;BME280;47465;43.094;12.434;2022-10-16T00:41:14;99209.34;;;15.04;100.00
61573;BME280;47465;43.094;12.434;2022-10-16T00:43:41;99206.91;;;14.98;100.00
61573;BME280;47465;43.094;12.434;2022-10-16T00:46:14;99206.16;;;14.94;100.00
61573;BME280;47465;43.094;12.434;2022-10-16T00:48:42;99205.44;;;14.89;100.00
61573;BME280;47465;43.094;12.434;2022-10-16T00:51:12;99209.94;;;14.89;100.00
61573;BME280;47465;43.094;12.434;2022-10-16T00:53:37;99203.94;;;14.82;100.00
61573;BME280;47465;43.094;12.434;2022-10-16T00:56:04;99211.31;;;14.75;100.00
61573;BME280;47465;43.094;12.434;2022-10-16T00:58:29;99220.03;;;14.81;100.00
61573;BME280;47465;43.094;12.434;2022-10-16T01:00:55;99211.50;;;14.71;100.00
61573;BME280;47465;43.094;12.434;2022-10-16T01:03:23;99220.22;;;14.76;100.00
61573;BME280;47465;43.094;12.434;2022-10-16T01:05:57;99223.13;;;14.70;100.00
61573;BME280;47465;43.094;12.434;2022-10-16T01:08:32;99216.22;;;14.64;100.00
61573;BME280;47465;43.094;12.434;2022-10-16T01:11:05;99203.81;;;14.62;100.00
61573;BME280;47465;43.094;12.434;2022-10-16T01:13:36;99217.25;;;14.60;100.00
61573;BME280;47465;43.094;12.434;2022-10-16T01:16:07;99209.56;;;14.49;100.00
61573;BME280;47465;43.094;12.434;2022-10-16T01:18:39;99214.75;;;14.54;100.00
61573;BME280;47465;43.094;12.434;2022-10-16T01:21:10;99210.56;;;14.47;100.00
61573;BME280;47465;43.094;12.434;2022-10-16T01:23:44;99217.63;;;14.48;100.00
61573;BME280;47465;43.094;12.434;2022-10-16T01:26:24;99223.97;;;14.45;100.00
61573;BME280;47465;43.094;12.434;2022-10-16T01:29:02;99213.69;;;14.33;100.00
61573;BME280;47465;43.094;12.434;2022-10-16T01:31:31;99218.22;;;14.31;100.00
61573;BME280;47465;43.094;12.434;2022-10-16T01:33:59;99235.75;;;14.39;100.00
61573;BME280;47465;43.094;12.434;2022-10-16T01:36:30;99212.03;;;14.30;100.00
61573;BME280;47465;43.094;12.434;2022-10-16T01:39:01;99219.78;;;14.38;100.00
61573;BME280;47465;43.094;12.434;2022-10-16T01:41:31;99216.28;;;14.36;100.00
61573;BME280;47465;43.094;12.434;2022-10-16T01:44:02;99194.38;;;14.25;100.00
61573;BME280;47465;43.094;12.434;2022-10-16T01:46:31;99216.34;;;14.34;100.00
61573;BME280;47465;43.094;12.434;2022-10-16T01:48:57;99226.16;;;14.34;100.00
61573;BME280;47465;43.094;12.434;2022-10-16T01:51:24;99229.13;;;14.25;100.00
61573;BME280;47465;43.094;12.434;2022-10-16T01:53:53;99218.69;;;14.18;100.00
61573;BME280;47465;43.094;12.434;2022-10-16T01:56:22;99216.16;;;14.14;100.00
61573;BME280;47465;43.094;12.434;2022-10-16T01:58:50;99233.78;;;14.20;100.00
61573;BME280;47465;43.094;12.434;2022-10-16T02:01:22;99227.72;;;14.14;100.00
61573;BME280;47465;43.094;12.434;2022-10-16T02:03:50;99239.06;;;14.23;100.00
61573;BME280;47465;43.094;12.434;2022-10-16T02:06:18;99219.78;;;14.11;100.00
61573;BME280;47465;43.094;12.434;2022-10-16T02:08:44;99243.41;;;14.25;100.00
61573;BME280;47465;43.094;12.434;2022-10-16T02:11:10;99233.69;;;14.23;100.00
61573;BME280;47465;43.094;12.434;2022-10-16T02:13:39;99228.44;;;14.20;100.00
61573;BME280;47465;43.094;12.434;2022-10-16T02:16:09;99235.31;;;14.27;100.00
61573;BME280;47465;43.094;12.434;2022-10-16T02:18:37;99233.78;;;14.20;100.00
61573;BME280;47465;43.094;12.434;2022-10-16T02:21:08;99225.06;;;14.14;100.00
61573;BME280;47465;43.094;12.434;2022-10-16T02:23:43;99235.75;;;14.14;100.00
61573;BME280;47465;43.094;12.434;2022-10-16T02:26:15;99241.03;;;14.16;100.00
61573;BME280;47465;43.094;12.434;2022-10-16T02:28:48;99234.28;;;14.06;100.00
61573;BME280;47465;43.094;12.434;2022-10-16T02:31:22;99237.22;;;13.96;100.00
61573;BME280;47465;43.094;12.434;2022-10-16T02:33:52;99222.59;;;13.82;100.00
61573;BME280;47465;43.094;12.434;2022-10-16T02:36:19;99221.03;;;13.74;100.00
61573;BME280;47465;43.094;12.434;2022-10-16T02:38:45;99228.72;;;13.57;100.00
61573;BME280;47465;43.094;12.434;2022-10-16T02:41:11;99237.63;;;13.58;100.00
61573;BME280;47465;43.094;12.434;2022-10-16T02:43:37;99251.22;;;13.50;100.00
61573;BME280;47465;43.094;12.434;2022-10-16T02:46:02;99242.69;;;13.39;100.00
61573;BME280;47465;43.094;12.434;2022-10-16T02:48:28;99243.72;;;13.33;100.00
61573;BME280;47465;43.094;12.434;2022-10-16T02:50:55;99232.56;;;13.19;100.00
61573;BME280;47465;43.094;12.434;2022-10-16T02:53:22;99226.53;;;13.12;100.00
61573;BME280;47465;43.094;12.434;2022-10-16T02:55:48;99245.28;;;13.10;100.00
61573;BME280;47465;43.094;12.434;2022-10-16T02:58:13;99251.44;;;13.12;100.00
61573;BME280;47465;43.094;12.434;2022-10-16T03:00:39;99230.53;;;12.97;100.00
61573;BME280;47465;43.094;12.434;2022-10-16T03:03:05;99247.25;;;13.04;100.00
61573;BME280;47465;43.094;12.434;2022-10-16T03:05:33;99253.81;;;12.92;100.00
61573;BME280;47465;43.094;12.434;2022-10-16T03:08:00;99245.03;;;12.88;100.00
61573;BME280;47465;43.094;12.434;2022-10-16T03:10:26;99245.16;;;12.84;100.00
61573;BME280;47465;43.094;12.434;2022-10-16T03:12:52;99259.28;;;12.87;100.00
61573;BME280;47465;43.094;12.434;2022-10-16T03:15:18;99257.44;;;12.89;100.00
61573;BME280;47465;43.094;12.434;2022-10-16T03:17:43;99242.59;;;12.79;100.00
61573;BME280;47465;43.094;12.434;2022-10-16T03:20:11;99256.00;;;12.78;100.00
61573;BME280;47465;43.094;12.434;2022-10-16T03:22:37;99263.00;;;12.82;100.00
61573;BME280;47465;43.094;12.434;2022-10-16T03:25:05;99258.84;;;12.71;100.00
61573;BME280;47465;43.094;12.434;2022-10-16T03:27:30;99252.84;;;12.63;100.00
61573;BME280;47465;43.094;12.434;2022-10-16T03:29:56;99256.34;;;12.65;100.00
61573;BME280;47465;43.094;12.434;2022-10-16T03:32:22;99264.44;;;12.62;100.00
61573;BME280;47465;43.094;12.434;2022-10-16T03:34:50;99248.72;;;12.51;100.00
61573;BME280;47465;43.094;12.434;2022-10-16T03:37:16;99253.97;;;12.54;100.00
61573;BME280;47465;43.094;12.434;2022-10-16T03:39:41;99249.63;;;12.50;100.00
61573;BME280;47465;43.094;12.434;2022-10-16T03:42:08;99259.41;;;12.51;100.00
61573;BME280;47465;43.094;12.434;2022-10-16T03:44:34;99272.63;;;12.56;100.00
61573;BME280;47465;43.094;12.434;2022-10-16T03:47:00;99244.56;;;12.41;100.00
61573;BME280;47465;43.094;12.434;2022-10-16T03:49:26;99272.66;;;12.54;100.00
61573;BME280;47465;43.094;12.434;2022-10-16T03:51:51;99270.25;;;12.44;100.00
61573;BME280;47465;43.094;12.434;2022-10-16T03:54:17;99252.75;;;12.33;100.00
61573;BME280;47465;43.094;12.434;2022-10-16T03:56:43;99244.97;;;12.26;100.00
61573;BME280;47465;43.094;12.434;2022-10-16T03:59:10;99266.78;;;12.40;100.00
61573;BME280;47465;43.094;12.434;2022-10-16T04:01:36;99262.50;;;12.35;100.00
61573;BME280;47465;43.094;12.434;2022-10-16T04:04:01;99266.06;;;12.35;100.00
61573;BME280;47465;43.094;12.434;2022-10-16T04:06:27;99274.88;;;12.37;100.00
61573;BME280;47465;43.094;12.434;2022-10-16T04:08:53;99275.00;;;12.32;100.00
61573;BME280;47465;43.094;12.434;2022-10-16T04:11:19;99295.34;;;12.37;100.00
61573;BME280;47465;43.094;12.434;2022-10-16T04:13:44;99284.75;;;12.33;100.00
61573;BME280;47465;43.094;12.434;2022-10-16T04:16:11;99288.31;;;12.34;100.00
61573;BME280;47465;43.094;12.434;2022-10-16T04:18:37;99275.03;;;12.31;100.00
61573;BME280;47465;43.094;12.434;2022-10-16T04:21:04;99276.81;;;12.32;100.00
61573;BME280;47465;43.094;12.434;2022-10-16T04:23:29;99277.69;;;12.32;100.00
61573;BME280;47465;43.094;12.434;2022-10-16T04:25:55;99284.75;;;12.33;100.00
61573;BME280;47465;43.094;12.434;2022-10-16T04:28:21;99264.53;;;12.25;100.00
61573;BME280;47465;43.094;12.434;2022-10-16T04:30:46;99264.69;;;12.19;100.00
61573;BME280;47465;43.094;12.434;2022-10-16T04:33:14;99277.94;;;12.23;100.00
61573;BME280;47465;43.094;12.434;2022-10-16T04:35:39;99292.09;;;12.25;100.00
61573;BME280;47465;43.094;12.434;2022-10-16T04:38:05;99281.63;;;12.16;100.00
61573;BME280;47465;43.094;12.434;2022-10-16T04:40:31;99277.38;;;12.09;100.00
61573;BME280;47465;43.094;12.434;2022-10-16T04:42:58;99286.22;;;12.11;100.00
61573;BME280;47465;43.094;12.434;2022-10-16T04:45:24;99295.03;;;12.15;100.00
61573;BME280;47465;43.094;12.434;2022-10-16T04:47:50;99295.91;;;12.15;100.00
61573;BME280;47465;43.094;12.434;2022-10-16T04:50:17;99290.53;;;12.17;100.00
61573;BME280;47465;43.094;12.434;2022-10-16T04:52:42;99291.34;;;12.19;100.00
61573;BME280;47465;43.094;12.434;2022-10-16T04:55:08;99293.28;;;12.12;100.00
61573;BME280;47465;43.094;12.434;2022-10-16T04:57:34;99299.47;;;12.14;100.00
61573;BME280;47465;43.094;12.434;2022-10-16T05:00:00;99293.34;;;12.10;100.00
61573;BME280;47465;43.094;12.434;2022-10-16T05:02:26;99295.19;;;12.08;100.00
61573;BME280;47465;43.094;12.434;2022-10-16T05:04:52;99286.47;;;12.02;100.00
61573;BME280;47465;43.094;12.434;2022-10-16T05:07:19;99286.50;;;12.00;100.00
61573;BME280;47465;43.094;12.434;2022-10-16T05:09:48;99294.47;;;12.02;100.00
61573;BME280;47465;43.094;12.434;2022-10-16T05:12:14;99293.56;;;12.01;100.00
61573;BME280;47465;43.094;12.434;2022-10-16T05:14:39;99285.66;;;11.98;100.00
61573;BME280;47465;43.094;12.434;2022-10-16T05:17:06;99272.56;;;11.89;100.00
61573;BME280;47465;43.094;12.434;2022-10-16T05:19:32;99288.53;;;11.89;100.00
61573;BME280;47465;43.094;12.434;2022-10-16T05:21:57;99296.41;;;11.95;100.00
61573;BME280;47465;43.094;12.434;2022-10-16T05:24:25;99293.88;;;11.87;100.00
61573;BME280;47465;43.094;12.434;2022-10-16T05:26:51;99305.31;;;11.92;100.00
61573;BME280;47465;43.094;12.434;2022-10-16T05:29:17;99294.84;;;11.83;100.00
61573;BME280;47465;43.094;12.434;2022-10-16T05:31:43;99307.97;;;11.92;100.00
61573;BME280;47465;43.094;12.434;2022-10-16T05:34:08;99299.22;;;11.86;100.00
61573;BME280;47465;43.094;12.434;2022-10-16T05:36:34;99309.81;;;11.90;100.00
61573;BME280;47465;43.094;12.434;2022-10-16T05:39:00;99307.19;;;11.87;100.00
61573;BME280;47465;43.094;12.434;2022-10-16T05:41:27;99300.16;;;11.85;100.00
61573;BME280;47465;43.094;12.434;2022-10-16T05:43:53;99290.34;;;11.87;100.00
61573;BME280;47465;43.094;12.434;2022-10-16T05:46:19;99312.31;;;11.98;100.00
61573;BME280;47465;43.094;12.434;2022-10-16T05:48:45;99300.03;;;11.91;100.00
61573;BME280;47465;43.094;12.434;2022-10-16T05:51:12;99307.78;;;12.02;100.00
61573;BME280;47465;43.094;12.434;2022-10-16T05:53:40;99305.00;;;12.06;100.00
61573;BME280;47465;43.094;12.434;2022-10-16T05:56:07;99316.50;;;12.08;100.00
61573;BME280;47465;43.094;12.434;2022-10-16T05:58:36;99302.47;;;12.00;100.00
61573;BME280;47465;43.094;12.434;2022-10-16T06:01:04;99305.03;;;12.05;100.00
61573;BME280;47465;43.094;12.434;2022-10-16T06:03:30;99326.84;;;12.21;100.00
61573;BME280;47465;43.094;12.434;2022-10-16T06:05:55;99310.13;;;12.14;100.00
61573;BME280;47465;43.094;12.434;2022-10-16T06:08:22;99319.63;;;12.26;100.00
61573;BME280;47465;43.094;12.434;2022-10-16T06:10:49;99337.91;;;12.41;100.00
61573;BME280;47465;43.094;12.434;2022-10-16T06:13:15;99308.03;;;12.27;100.00
61573;BME280;47465;43.094;12.434;2022-10-16T06:15:42;99327.22;;;12.43;100.00
61573;BME280;47465;43.094;12.434;2022-10-16T06:18:08;99323.50;;;12.47;100.00
61573;BME280;47465;43.094;12.434;2022-10-16T06:20:34;99319.84;;;12.51;100.00
61573;BME280;47465;43.094;12.434;2022-10-16T06:23:00;99315.19;;;12.59;100.00
61573;BME280;47465;43.094;12.434;2022-10-16T06:25:25;99322.22;;;12.63;100.00
61573;BME280;47465;43.094;12.434;2022-10-16T06:27:51;99327.44;;;12.66;100.00
61573;BME280;47465;43.094;12.434;2022-10-16T06:30:17;99334.34;;;12.75;100.00
61573;BME280;47465;43.094;12.434;2022-10-16T06:32:44;99344.78;;;12.84;100.00
61573;BME280;47465;43.094;12.434;2022-10-16T06:35:10;99347.31;;;12.89;100.00
61573;BME280;47465;43.094;12.434;2022-10-16T06:37:36;99358.63;;;12.99;100.00
61573;BME280;47465;43.094;12.434;2022-10-16T06:40:01;99338.31;;;12.93;100.00
61573;BME280;47465;43.094;12.434;2022-10-16T06:42:29;99349.53;;;13.06;100.00
61573;BME280;47465;43.094;12.434;2022-10-16T06:44:55;99355.59;;;13.12;100.00
61573;BME280;47465;43.094;12.434;2022-10-16T06:47:21;99356.97;;;13.26;100.00
61573;BME280;47465;43.094;12.434;2022-10-16T06:49:48;99367.47;;;13.33;100.00
61573;BME280;47465;43.094;12.434;2022-10-16T06:52:14;99361.03;;;13.41;100.00
61573;BME280;47465;43.094;12.434;2022-10-16T06:54:40;99360.75;;;13.50;100.00
61573;BME280;47465;43.094;12.434;2022-10-16T06:57:05;99348.41;;;13.46;100.00
61573;BME280;47465;43.094;12.434;2022-10-16T06:59:31;99368.16;;;13.71;100.00
61573;BME280;47465;43.094;12.434;2022-10-16T07:01:57;99378.38;;;13.87;100.00
61573;BME280;47465;43.094;12.434;2022-10-16T07:04:22;99359.47;;;13.93;100.00
61573;BME280;47465;43.094;12.434;2022-10-16T07:06:49;99356.69;;;13.96;100.00
61573;BME280;47465;43.094;12.434;2022-10-16T07:09:17;99355.59;;;14.03;100.00
61573;BME280;47465;43.094;12.434;2022-10-16T07:11:43;99384.09;;;14.31;100.00
61573;BME280;47465;43.094;12.434;2022-10-16T07:14:15;99372.28;;;14.38;100.00
61573;BME280;47465;43.094;12.434;2022-10-16T07:16:41;99385.13;;;14.55;100.00
61573;BME280;47465;43.094;12.434;2022-10-16T07:19:08;99376.81;;;14.64;100.00
61573;BME280;47465;43.094;12.434;2022-10-16T07:21:34;99364.09;;;14.71;100.00
61573;BME280;47465;43.094;12.434;2022-10-16T07:24:04;99398.84;;;14.97;100.00
61573;BME280;47465;43.094;12.434;2022-10-16T07:26:32;99397.53;;;15.09;100.00
61573;BME280;47465;43.094;12.434;2022-10-16T07:28:58;99379.72;;;15.08;100.00
61573;BME280;47465;43.094;12.434;2022-10-16T07:31:24;99390.72;;;15.26;100.00
61573;BME280;47465;43.094;12.434;2022-10-16T07:33:50;99415.38;;;15.35;98.17
61573;BME280;47465;43.094;12.434;2022-10-16T07:36:18;99406.34;;;15.38;98.71
61573;BME280;47465;43.094;12.434;2022-10-16T07:38:44;99409.69;;;15.45;96.15
61573;BME280;47465;43.094;12.434;2022-10-16T07:41:13;99413.06;;;15.50;97.15
61573;BME280;47465;43.094;12.434;2022-10-16T07:43:39;99418.56;;;15.70;97.53
61573;BME280;47465;43.094;12.434;2022-10-16T07:46:05;99412.66;;;15.86;95.86
61573;BME280;47465;43.094;12.434;2022-10-16T07:48:32;99401.94;;;15.86;94.55
61573;BME280;47465;43.094;12.434;2022-10-16T07:50:59;99412.53;;;15.89;93.96
61573;BME280;47465;43.094;12.434;2022-10-16T07:53:25;99408.38;;;16.04;94.54
61573;BME280;47465;43.094;12.434;2022-10-16T07:55:51;99410.97;;;16.29;93.82
61573;BME280;47465;43.094;12.434;2022-10-16T07:58:18;99391.03;;;16.34;91.56
61573;BME280;47465;43.094;12.434;2022-10-16T08:00:43;99406.28;;;16.56;90.28
61573;BME280;47465;43.094;12.434;2022-10-16T08:03:09;99416.50;;;16.68;88.24
61573;BME280;47465;43.094;12.434;2022-10-16T08:05:35;99397.63;;;16.70;88.29
61573;BME280;47465;43.094;12.434;2022-10-16T08:08:01;99418.13;;;16.94;88.30
61573;BME280;47465;43.094;12.434;2022-10-16T08:10:28;99400.00;;;16.99;87.61
61573;BME280;47465;43.094;12.434;2022-10-16T08:12:55;99395.22;;;17.06;87.08
61573;BME280;47465;43.094;12.434;2022-10-16T08:15:22;99411.69;;;17.19;85.75
61573;BME280;47465;43.094;12.434;2022-10-16T08:17:55;99404.97;;;17.09;87.17
61573;BME280;47465;43.094;12.434;2022-10-16T08:20:21;99419.22;;;17.31;86.10
61573;BME280;47465;43.094;12.434;2022-10-16T08:22:47;99428.31;;;17.48;85.16
61573;BME280;47465;43.094;12.434;2022-10-16T08:25:13;99433.09;;;17.61;85.66
61573;BME280;47465;43.094;12.434;2022-10-16T08:27:38;99435.16;;;17.75;84.27
61573;BME280;47465;43.094;12.434;2022-10-16T08:30:05;99413.50;;;17.78;83.47
61573;BME280;47465;43.094;12.434;2022-10-16T08:32:33;99403.63;;;17.79;82.64
61573;BME280;47465;43.094;12.434;2022-10-16T08:34:58;99426.06;;;17.98;82.97
61573;BME280;47465;43.094;12.434;2022-10-16T08:37:24;99406.47;;;17.95;82.02
61573;BME280;47465;43.094;12.434;2022-10-16T08:39:50;99411.22;;;18.09;80.54
61573;BME280;47465;43.094;12.434;2022-10-16T08:42:29;99412.75;;;18.14;79.28
61573;BME280;47465;43.094;12.434;2022-10-16T08:45:27;99419.84;;;18.34;79.20
61573;BME280;47465;43.094;12.434;2022-10-16T08:48:09;99426.38;;;18.47;78.80
61573;BME280;47465;43.094;12.434;2022-10-16T08:50:44;99412.78;;;18.51;78.40
61573;BME280;47465;43.094;12.434;2022-10-16T08:53:15;99429.72;;;18.72;77.40
61573;BME280;47465;43.094;12.434;2022-10-16T08:55:46;99409.44;;;18.82;76.28
61573;BME280;47465;43.094;12.434;2022-10-16T08:58:14;99422.38;;;18.93;75.54
61573;BME280;47465;43.094;12.434;2022-10-16T09:00:41;99426.03;;;18.92;75.00
61573;BME280;47465;43.094;12.434;2022-10-16T09:03:17;99434.91;;;18.94;75.15
61573;BME280;47465;43.094;12.434;2022-10-16T09:05:52;99437.38;;;18.98;76.17
61573;BME280;47465;43.094;12.434;2022-10-16T09:08:29;99429.34;;;18.97;76.91
61573;BME280;47465;43.094;12.434;2022-10-16T09:10:58;99437.22;;;19.01;76.60
61573;BME280;47465;43.094;12.434;2022-10-16T09:13:29;99432.47;;;19.06;76.68
61573;BME280;47465;43.094;12.434;2022-10-16T09:16:04;99425.16;;;18.91;75.96
61573;BME280;47465;43.094;12.434;2022-10-16T09:18:43;99423.34;;;18.92;76.42
61573;BME280;47465;43.094;12.434;2022-10-16T09:21:20;99443.25;;;19.06;75.45
61573;BME280;47465;43.094;12.434;2022-10-16T09:23:47;99435.72;;;19.13;76.16
61573;BME280;47465;43.094;12.434;2022-10-16T09:26:15;99425.81;;;19.14;75.08
61573;BME280;47465;43.094;12.434;2022-10-16T09:31:53;99430.41;;;19.12;75.31
61573;BME280;47465;43.094;12.434;2022-10-16T09:34:27;99438.56;;;19.27;75.39
61573;BME280;47465;43.094;12.434;2022-10-16T09:36:56;99433.72;;;19.34;74.37
61573;BME280;47465;43.094;12.434;2022-10-16T09:39:23;99430.63;;;19.42;74.18
61573;BME280;47465;43.094;12.434;2022-10-16T09:41:51;99430.78;;;19.56;74.24
61573;BME280;47465;43.094;12.434;2022-10-16T09:44:20;99447.66;;;19.77;73.33
61573;BME280;47465;43.094;12.434;2022-10-16T09:46:47;99427.28;;;19.54;73.17
61573;BME280;47465;43.094;12.434;2022-10-16T09:49:22;99419.78;;;19.26;73.59
61573;BME280;47465;43.094;12.434;2022-10-16T09:51:49;99436.50;;;19.50;74.71
61573;BME280;47465;43.094;12.434;2022-10-16T09:54:17;99427.84;;;19.43;74.84
61573;BME280;47465;43.094;12.434;2022-10-16T09:56:43;99437.81;;;19.76;73.54
61573;BME280;47465;43.094;12.434;2022-10-16T09:59:13;99431.94;;;19.68;72.13
61573;BME280;47465;43.094;12.434;2022-10-16T10:01:40;99437.38;;;19.84;73.04
61573;BME280;47465;43.094;12.434;2022-10-16T10:04:07;99427.31;;;19.87;71.96
61573;BME280;47465;43.094;12.434;2022-10-16T10:06:40;99425.84;;;19.98;71.20
61573;BME280;47465;43.094;12.434;2022-10-16T10:09:15;99420.13;;;20.04;71.40
61573;BME280;47465;43.094;12.434;2022-10-16T10:11:44;99429.44;;;20.14;71.46
61573;BME280;47465;43.094;12.434;2022-10-16T10:14:19;99417.69;;;20.15;70.65
61573;BME280;47465;43.094;12.434;2022-10-16T10:16:45;99418.28;;;20.20;71.46
61573;BME280;47465;43.094;12.434;2022-10-16T10:19:15;99420.03;;;20.21;71.34
61573;BME280;47465;43.094;12.434;2022-10-16T10:21:42;99414.66;;;20.21;72.02
61573;BME280;47465;43.094;12.434;2022-10-16T10:24:11;99410.38;;;20.17;71.88
61573;BME280;47465;43.094;12.434;2022-10-16T10:26:38;99422.63;;;20.23;71.49
61573;BME280;47465;43.094;12.434;2022-10-16T10:29:08;99424.13;;;20.28;71.62
61573;BME280;47465;43.094;12.434;2022-10-16T10:31:43;99412.19;;;20.17;71.32
61573;BME280;47465;43.094;12.434;2022-10-16T10:34:23;99412.19;;;20.17;71.96
61573;BME280;47465;43.094;12.434;2022-10-16T10:36:58;99429.34;;;20.16;71.20
61573;BME280;47465;43.094;12.434;2022-10-16T10:39:31;99402.75;;;20.08;71.71
61573;BME280;47465;43.094;12.434;2022-10-16T10:42:17;99423.63;;;20.22;71.43
61573;BME280;47465;43.094;12.434;2022-10-16T10:45:20;99429.94;;;20.05;71.71
61573;BME280;47465;43.094;12.434;2022-10-16T10:47:58;99409.91;;;19.93;72.28
61573;BME280;47465;43.094;12.434;2022-10-16T10:50:31;99409.41;;;20.02;72.45
61573;BME280;47465;43.094;12.434;2022-10-16T10:53:08;99424.41;;;20.24;71.92
61573;BME280;47465;43.094;12.434;2022-10-16T10:55:44;99401.94;;;20.23;71.48
61573;BME280;47465;43.094;12.434;2022-10-16T10:58:24;99409.31;;;20.36;70.57
61573;BME280;47465;43.094;12.434;2022-10-16T11:00:59;99405.81;;;20.34;70.27
61573;BME280;47465;43.094;12.434;2022-10-16T11:03:35;99405.91;;;20.48;70.19
61573;BME280;47465;43.094;12.434;2022-10-16T11:06:06;99398.53;;;20.51;68.88
61573;BME280;47465;43.094;12.434;2022-10-16T11:08:39;99381.09;;;20.41;68.90
61573;BME280;47465;43.094;12.434;2022-10-16T11:11:10;99395.81;;;20.51;68.15
61573;BME280;47465;43.094;12.434;2022-10-16T11:13:43;99400.25;;;20.52;67.76
61573;BME280;47465;43.094;12.434;2022-10-16T11:16:18;99393.28;;;20.33;67.05
61573;BME280;47465;43.094;12.434;2022-10-16T11:18:50;99382.94;;;20.41;66.43
61573;BME280;47465;43.094;12.434;2022-10-16T11:21:19;99371.50;;;20.36;65.36
61573;BME280;47465;43.094;12.434;2022-10-16T11:23:52;99405.25;;;20.60;66.81
61573;BME280;47465;43.094;12.434;2022-10-16T11:26:21;99388.25;;;20.58;65.86
61573;BME280;47465;43.094;12.434;2022-10-16T11:28:50;99387.09;;;20.62;65.67
61573;BME280;47465;43.094;12.434;2022-10-16T11:31:22;99391.13;;;20.71;65.69
61573;BME280;47465;43.094;12.434;2022-10-16T11:33:54;99382.31;;;20.67;65.60
61573;BME280;47465;43.094;12.434;2022-10-16T11:36:29;99378.53;;;20.70;63.84
61573;BME280;47465;43.094;12.434;2022-10-16T11:39:02;99363.94;;;20.58;63.09
61573;BME280;47465;43.094;12.434;2022-10-16T11:41:35;99379.59;;;20.67;63.51
61573;BME280;47465;43.094;12.434;2022-10-16T11:44:16;99383.69;;;20.75;64.01
61573;BME280;47465;43.094;12.434;2022-10-16T11:46:49;99380.09;;;20.74;64.57
61573;BME280;47465;43.094;12.434;2022-10-16T11:49:19;99384.28;;;20.80;64.43
61573;BME280;47465;43.094;12.434;2022-10-16T11:51:55;99367.16;;;20.65;63.22
61573;BME280;47465;43.094;12.434;2022-10-16T11:54:32;99386.22;;;20.78;63.42
61573;BME280;47465;43.094;12.434;2022-10-16T11:57:02;99362.13;;;20.73;63.41
61573;BME280;47465;43.094;12.434;2022-10-16T11:59:37;99359.28;;;20.90;60.60
61573;BME280;47465;43.094;12.434;2022-10-16T12:02:30;99370.94;;;21.07;60.29
61573;BME280;47465;43.094;12.434;2022-10-16T12:05:12;99363.41;;;21.12;58.79
61573;BME280;47465;43.094;12.434;2022-10-16T12:07:45;99370.84;;;21.23;56.84
61573;BME280;47465;43.094;12.434;2022-10-16T12:10:22;99370.00;;;21.22;56.93
61573;BME280;47465;43.094;12.434;2022-10-16T12:12:48;99350.78;;;21.12;57.96
61573;BME280;47465;43.094;12.434;2022-10-16T12:15:21;99366.44;;;21.22;58.46
61573;BME280;47465;43.094;12.434;2022-10-16T12:17:47;99367.56;;;21.18;58.24
61573;BME280;47465;43.094;12.434;2022-10-16T12:20:28;99356.28;;;21.11;59.89
61573;BME280;47465;43.094;12.434;2022-10-16T12:22:58;99353.34;;;21.14;61.96
61573;BME280;47465;43.094;12.434;2022-10-16T12:25:27;99353.59;;;21.25;61.64
61573;BME280;47465;43.094;12.434;2022-10-16T12:27:56;99368.31;;;21.50;58.86
61573;BME280;47465;43.094;12.434;2022-10-16T12:30:24;99357.41;;;21.51;57.41
61573;BME280;47465;43.094;12.434;2022-10-16T12:32:53;99342.41;;;21.46;58.67
61573;BME280;47465;43.094;12.434;2022-10-16T12:35:21;99341.03;;;21.39;55.96
61573;BME280;47465;43.094;12.434;2022-10-16T12:37:48;99350.97;;;21.38;53.85
61573;BME280;47465;43.094;12.434;2022-10-16T12:40:23;99358.56;;;21.47;52.33
61573;BME280;47465;43.094;12.434;2022-10-16T12:42:52;99347.16;;;21.42;52.11
61573;BME280;47465;43.094;12.434;2022-10-16T12:45:27;99342.78;;;21.40;53.54
61573;BME280;47465;43.094;12.434;2022-10-16T12:47:55;99335.09;;;21.48;55.29
61573;BME280;47465;43.094;12.434;2022-10-16T12:50:33;99362.34;;;21.59;55.03
61573;BME280;47465;43.094;12.434;2022-10-16T12:53:00;99340.06;;;21.40;52.58
61573;BME280;47465;43.094;12.434;2022-10-16T12:55:35;99343.16;;;21.33;53.47